Time;durP1;ratioP1;P1;durP2;ratioP2;P2;SDS_P1;SDS_P2;PMS_P1;PMS_P2;Temp;Humidity;BMP_temperature;BMP_pressure;BME280_temperature;BME280_humidity;BME280_pressure;Samples;Min_cycle;Max_cycle;Signal;HPM_P1;HPM_P2
2021/08/28 00:01:34;;;;;;;2.80;1.95;;;18.80;99.90;;;;;;5062280;28;20263;-79
2021/08/28 00:04:01;;;;;;;1.83;1.70;;;18.80;99.90;;;;;;5069604;28;20632;-79
2021/08/28 00:06:29;;;;;;;6.15;2.65;;;18.80;99.90;;;;;;5070522;28;20279;-79
2021/08/28 00:08:56;;;;;;;4.47;2.42;;;18.80;99.90;;;;;;5069812;28;20283;-79
2021/08/28 00:11:23;;;;;;;2.55;2.35;;;18.70;99.90;;;;;;5070566;28;20198;-79
2021/08/28 00:13:50;;;;;;;5.95;2.45;;;18.70;99.90;;;;;;5069444;28;20237;-79
2021/08/28 00:16:17;;;;;;;5.00;2.17;;;18.70;99.90;;;;;;5069749;28;20209;-78
2021/08/28 00:18:45;;;;;;;3.72;2.00;;;18.60;99.90;;;;;;5069780;28;20249;-79
2021/08/28 00:21:12;;;;;;;5.97;2.67;;;18.70;99.90;;;;;;5070431;28;20210;-79
2021/08/28 00:23:41;;;;;;;2.92;1.90;;;18.70;99.90;;;;;;5074005;28;20293;-79
2021/08/28 00:26:08;;;;;;;2.58;2.30;;;18.70;99.90;;;;;;5074001;28;20203;-80
2021/08/28 00:28:35;;;;;;;2.40;2.20;;;18.60;99.90;;;;;;5074060;28;20209;-79
2021/08/28 00:31:02;;;;;;;3.38;2.45;;;18.60;99.90;;;;;;5073254;28;20755;-79
2021/08/28 00:33:29;;;;;;;3.33;2.13;;;18.50;99.90;;;;;;5074145;28;20233;-79
2021/08/28 00:35:56;;;;;;;3.25;2.05;;;18.70;99.90;;;;;;5073462;28;20259;-79
2021/08/28 00:38:22;;;;;;;5.03;2.22;;;18.70;99.90;;;;;;5073927;28;20206;-80
2021/08/28 00:40:51;;;;;;;6.78;2.60;;;18.70;99.90;;;;;;5073222;28;20240;-80
2021/08/28 00:43:18;;;;;;;7.60;2.65;;;18.70;99.90;;;;;;5073137;28;20252;-79
2021/08/28 00:45:45;;;;;;;4.10;2.10;;;18.60;99.90;;;;;;5072880;28;20665;-79
2021/08/28 00:48:16;;;;;;;3.33;1.77;;;18.50;99.90;;;;;;5073484;28;20230;-78
2021/08/28 00:50:44;;;;;;;2.58;2.38;;;18.60;99.90;;;;;;5073347;28;20289;-79
2021/08/28 00:53:13;;;;;;;2.40;2.20;;;18.60;99.90;;;;;;5073444;28;20297;-79
2021/08/28 00:55:42;;;;;;;4.15;2.13;;;18.50;99.90;;;;;;5072928;28;20738;-79
2021/08/28 00:58:10;;;;;;;5.85;1.98;;;18.50;99.90;;;;;;5073475;28;20210;-79
2021/08/28 01:00:41;;;;;;;2.67;2.05;;;18.40;99.90;;;;;;5073295;28;20202;-79
2021/08/28 01:03:10;;;;;;;3.25;1.83;;;18.30;99.90;;;;;;5073308;28;20268;-79
2021/08/28 01:05:47;;;;;;;2.90;2.30;;;18.30;99.90;;;;;;5073531;28;20203;-79
2021/08/28 01:08:25;;;;;;;1.90;1.55;;;18.20;99.90;;;;;;5073145;28;20673;-79
2021/08/28 01:10:57;;;;;;;3.33;2.30;;;18.20;99.90;;;;;;5072759;28;20210;-80
2021/08/28 01:13:31;;;;;;;2.60;2.10;;;18.30;99.90;;;;;;5072965;28;20240;-80
2021/08/28 01:15:59;;;;;;;2.90;2.30;;;18.30;99.90;;;;;;5072727;28;20207;-80
2021/08/28 01:18:28;;;;;;;3.72;1.70;;;18.30;99.90;;;;;;5073113;28;20202;-79
2021/08/28 01:21:03;;;;;;;4.47;2.35;;;18.30;99.90;;;;;;5072235;28;20717;-79
2021/08/28 01:23:33;;;;;;;7.75;2.80;;;18.20;99.90;;;;;;5072921;28;20613;-79
2021/08/28 01:26:04;;;;;;;5.43;2.25;;;18.30;99.90;;;;;;5072342;28;20283;-78
2021/08/28 01:28:38;;;;;;;4.15;2.38;;;18.30;99.90;;;;;;5072669;28;20335;-79
2021/08/28 01:31:07;;;;;;;3.80;1.75;;;18.20;99.90;;;;;;5072768;28;20198;-79
2021/08/28 01:33:35;;;;;;;2.40;1.88;;;18.20;99.90;;;;;;5072366;28;20638;-79
2021/08/28 01:36:03;;;;;;;3.40;2.67;;;18.20;99.90;;;;;;5072492;28;20203;-79
2021/08/28 01:38:30;;;;;;;3.80;2.30;;;18.20;99.90;;;;;;5072856;28;20627;-79
2021/08/28 01:40:58;;;;;;;5.63;1.95;;;18.20;99.90;;;;;;5072273;28;20643;-79
2021/08/28 01:43:25;;;;;;;3.58;2.00;;;18.20;99.90;;;;;;5072221;28;20256;-78
2021/08/28 01:45:52;;;;;;;2.28;1.65;;;18.10;99.90;;;;;;5072298;28;20214;-78
2021/08/28 01:48:21;;;;;;;3.92;2.10;;;18.00;99.90;;;;;;5072060;28;20624;-79
2021/08/28 01:50:49;;;;;;;3.97;2.13;;;17.90;99.90;;;;;;5072026;28;20210;-79
2021/08/28 01:53:17;;;;;;;2.95;1.90;;;17.90;99.90;;;;;;5072594;28;20230;-78
2021/08/28 01:55:44;;;;;;;4.03;1.77;;;17.90;99.90;;;;;;5071820;28;20580;-78
2021/08/28 01:58:12;;;;;;;4.15;2.42;;;17.90;99.90;;;;;;5072201;28;20206;-79
2021/08/28 02:00:39;;;;;;;6.07;2.50;;;17.80;99.90;;;;;;5071620;28;20621;-78
2021/08/28 02:03:06;;;;;;;3.65;2.00;;;17.90;99.90;;;;;;5072725;28;20218;-78
2021/08/28 02:05:41;;;;;;;3.92;2.67;;;18.00;99.90;;;;;;5072504;28;20260;-79
2021/08/28 02:08:16;;;;;;;3.13;2.63;;;17.90;99.90;;;;;;5072260;28;20565;-79
2021/08/28 02:10:51;;;;;;;6.65;2.28;;;17.90;99.90;;;;;;5071350;28;20210;-79
2021/08/28 02:13:25;;;;;;;5.40;1.92;;;17.90;99.90;;;;;;5072026;28;20227;-79
2021/08/28 02:15:54;;;;;;;3.63;2.47;;;17.70;99.90;;;;;;5071587;28;20708;-79
2021/08/28 02:18:25;;;;;;;3.67;1.88;;;17.70;99.90;;;;;;5071909;28;20640;-79
2021/08/28 02:20:56;;;;;;;3.50;1.95;;;17.70;99.90;;;;;;5071148;28;20678;-78
2021/08/28 02:23:29;;;;;;;3.55;1.77;;;17.70;99.90;;;;;;5071787;28;20210;-78
2021/08/28 02:26:03;;;;;;;2.97;2.22;;;17.80;99.90;;;;;;5070851;28;21398;-78
2021/08/28 02:28:36;;;;;;;3.28;2.30;;;17.80;99.90;;;;;;5071599;28;20580;-78
2021/08/28 02:31:05;;;;;;;2.75;1.88;;;17.80;99.90;;;;;;5071528;28;20565;-79
2021/08/28 02:33:35;;;;;;;3.10;2.35;;;17.70;99.90;;;;;;5071797;28;20233;-78
2021/08/28 02:36:04;;;;;;;3.88;2.60;;;17.70;99.90;;;;;;5071104;28;20206;-79
2021/08/28 02:38:32;;;;;;;3.05;2.10;;;17.70;99.90;;;;;;5071463;28;20555;-78
2021/08/28 02:41:02;;;;;;;3.22;2.65;;;17.80;99.90;;;;;;5070661;28;20218;-78
2021/08/28 02:43:30;;;;;;;1.73;1.63;;;17.80;99.90;;;;;;5071379;28;20982;-78
2021/08/28 02:45:58;;;;;;;2.25;2.05;;;17.80;99.90;;;;;;5069974;28;20673;-78
2021/08/28 02:48:29;;;;;;;3.22;2.13;;;17.70;99.90;;;;;;5085150;28;20680;-78
2021/08/28 02:51:00;;;;;;;2.78;1.75;;;17.60;99.90;;;;;;5070914;28;20657;-78
2021/08/28 02:53:31;;;;;;;3.10;2.25;;;17.60;99.90;;;;;;5070836;28;20229;-78
2021/08/28 02:55:59;;;;;;;3.28;2.30;;;17.60;99.90;;;;;;5066109;28;20297;-78
2021/08/28 02:58:27;;;;;;;4.35;2.05;;;17.50;99.90;;;;;;5067139;28;20209;-78
2021/08/28 03:00:56;;;;;;;5.18;3.10;;;17.40;99.90;;;;;;5070558;28;20264;-78
2021/08/28 03:03:23;;;;;;;4.45;2.65;;;17.30;99.90;;;;;;5071179;28;20206;-78
2021/08/28 03:05:52;;;;;;;3.20;2.22;;;17.30;99.90;;;;;;5070547;28;20560;-78
2021/08/28 03:08:21;;;;;;;2.38;2.17;;;17.10;99.90;;;;;;5071050;28;20202;-78
2021/08/28 03:10:51;;;;;;;4.18;2.35;;;17.00;99.90;;;;;;5070566;28;20206;-78
2021/08/28 03:13:19;;;;;;;4.28;2.83;;;17.00;99.90;;;;;;5070303;28;20618;-77
2021/08/28 03:15:47;;;;;;;5.63;2.67;;;17.10;99.90;;;;;;5070512;28;20236;-78
2021/08/28 03:18:16;;;;;;;3.28;2.85;;;17.10;99.90;;;;;;5071024;28;20267;-78
2021/08/28 03:20:48;;;;;;;4.20;3.40;;;17.00;99.90;;;;;;5070298;28;20206;-78
2021/08/28 03:23:19;;;;;;;6.03;2.75;;;17.00;99.90;;;;;;5070800;28;20240;-78
2021/08/28 03:25:47;;;;;;;4.00;2.42;;;17.00;99.90;;;;;;5070155;28;20202;-78
2021/08/28 03:28:17;;;;;;;2.58;2.33;;;16.90;99.90;;;;;;5071000;28;20271;-79
2021/08/28 03:30:46;;;;;;;3.25;2.92;;;17.00;99.90;;;;;;5070165;28;20202;-78
2021/08/28 03:33:14;;;;;;;3.55;2.80;;;17.00;99.90;;;;;;5071051;28;20275;-78
2021/08/28 03:35:42;;;;;;;5.13;3.03;;;17.00;99.90;;;;;;5070068;28;20263;-78
2021/08/28 03:38:09;;;;;;;3.75;3.20;;;17.00;99.90;;;;;;5069038;28;20685;-78
2021/08/28 03:40:36;;;;;;;3.88;3.13;;;16.80;99.90;;;;;;5070582;28;20214;-78
2021/08/28 03:43:03;;;;;;;3.90;2.92;;;16.70;99.90;;;;;;5070597;28;20228;-78
2021/08/28 03:45:32;;;;;;;5.45;3.50;;;16.70;99.90;;;;;;5070485;28;20641;-78
2021/08/28 03:48:01;;;;;;;2.95;2.63;;;16.50;99.90;;;;;;5070190;28;20646;-78
2021/08/28 03:50:28;;;;;;;3.03;2.58;;;16.60;99.90;;;;;;5070394;28;20214;-78
2021/08/28 03:52:55;;;;;;;6.75;2.60;;;16.70;99.90;;;;;;5069913;28;20251;-77
2021/08/28 03:55:22;;;;;;;3.05;2.75;;;16.70;99.90;;;;;;5070583;28;20302;-78
2021/08/28 03:57:49;;;;;;;4.32;2.90;;;16.70;99.90;;;;;;5069721;28;20202;-78
2021/08/28 04:00:17;;;;;;;3.20;2.92;;;16.50;99.90;;;;;;5070693;28;20202;-78
2021/08/28 04:02:45;;;;;;;3.85;2.85;;;16.70;99.90;;;;;;5070038;28;20209;-78
2021/08/28 04:05:12;;;;;;;5.85;3.28;;;16.50;99.90;;;;;;5069981;28;20259;-78
2021/08/28 04:07:39;;;;;;;5.20;3.05;;;16.50;99.90;;;;;;5069777;28;20542;-78
2021/08/28 04:10:07;;;;;;;3.33;2.80;;;16.40;99.90;;;;;;5070182;28;20579;-79
2021/08/28 04:12:35;;;;;;;4.95;3.13;;;16.50;99.90;;;;;;5070844;28;20210;-79
2021/08/28 04:15:02;;;;;;;7.68;3.25;;;16.30;99.90;;;;;;5069462;28;20238;-79
2021/08/28 04:17:29;;;;;;;6.18;3.22;;;16.20;99.90;;;;;;5070425;28;20271;-79
2021/08/28 04:19:57;;;;;;;3.80;3.03;;;16.40;99.90;;;;;;5069641;28;20207;-79
2021/08/28 04:22:24;;;;;;;4.53;3.15;;;16.40;99.90;;;;;;5070409;28;20206;-79
2021/08/28 04:24:51;;;;;;;3.25;2.83;;;16.50;99.90;;;;;;5069682;28;20202;-79
2021/08/28 04:27:18;;;;;;;3.85;2.80;;;16.40;99.90;;;;;;5070149;28;20248;-79
2021/08/28 04:29:45;;;;;;;4.13;3.33;;;16.30;99.90;;;;;;5069591;28;20686;-79
2021/08/28 04:32:12;;;;;;;2.85;2.65;;;16.30;99.90;;;;;;5069798;28;20256;-79
2021/08/28 04:34:39;;;;;;;2.88;2.67;;;16.30;99.90;;;;;;5069640;28;20705;-79
2021/08/28 04:37:07;;;;;;;3.72;3.33;;;16.40;99.90;;;;;;5069765;28;20206;-78
2021/08/28 04:39:34;;;;;;;4.03;3.17;;;16.40;99.90;;;;;;5070296;28;20210;-79
2021/08/28 04:42:01;;;;;;;4.45;3.38;;;16.40;99.90;;;;;;5069657;28;20214;-79
2021/08/28 04:44:28;;;;;;;3.35;3.03;;;16.30;99.90;;;;;;5069932;28;20221;-79
2021/08/28 04:46:55;;;;;;;3.72;2.88;;;16.30;99.90;;;;;;5069183;28;20566;-79
2021/08/28 04:49:22;;;;;;;5.50;3.08;;;16.20;99.90;;;;;;5070443;28;20211;-79
2021/08/28 04:51:49;;;;;;;3.33;2.80;;;16.10;99.90;;;;;;5069543;28;20206;-79
2021/08/28 04:54:18;;;;;;;5.95;3.30;;;16.10;99.90;;;;;;5069807;28;20279;-78
2021/08/28 04:56:44;;;;;;;4.65;2.60;;;15.90;99.90;;;;;;5069039;28;20746;-78
2021/08/28 04:59:11;;;;;;;4.28;2.60;;;16.00;99.90;;;;;;5069614;28;20202;-79
2021/08/28 05:01:41;;;;;;;5.55;2.85;;;16.10;99.90;;;;;;5069439;28;20214;-79
2021/08/28 05:04:08;;;;;;;3.72;2.60;;;16.10;99.90;;;;;;5069824;28;20289;-79
2021/08/28 05:06:35;;;;;;;4.22;2.88;;;16.20;99.90;;;;;;5069734;28;20214;-79
2021/08/28 05:09:02;;;;;;;4.70;2.85;;;16.10;99.90;;;;;;5070833;28;20240;-79
2021/08/28 05:11:31;;;;;;;4.30;2.55;;;16.00;99.90;;;;;;5072917;28;20256;-79
2021/08/28 05:13:57;;;;;;;4.47;3.17;;;15.90;99.90;;;;;;5072610;28;20210;-79
2021/08/28 05:16:24;;;;;;;4.00;3.17;;;15.90;99.90;;;;;;5072811;28;20206;-79
2021/08/28 05:18:51;;;;;;;4.22;3.50;;;15.90;99.90;;;;;;5072813;28;20264;-79
2021/08/28 05:21:18;;;;;;;4.18;3.35;;;15.80;99.90;;;;;;5072725;28;20633;-79
2021/08/28 05:23:45;;;;;;;4.40;3.08;;;15.80;99.90;;;;;;5072659;28;20252;-79
2021/08/28 05:26:12;;;;;;;5.07;3.92;;;15.90;99.90;;;;;;5072987;28;20267;-79
2021/08/28 05:28:41;;;;;;;4.72;2.78;;;16.00;99.90;;;;;;5072484;28;20259;-79
2021/08/28 05:31:08;;;;;;;4.03;2.40;;;15.80;99.90;;;;;;5072836;28;20751;-79
2021/08/28 05:33:35;;;;;;;3.85;2.78;;;15.80;99.90;;;;;;5073122;28;20567;-79
2021/08/28 05:36:02;;;;;;;4.20;3.08;;;15.90;99.90;;;;;;5072639;28;20328;-79
2021/08/28 05:38:29;;;;;;;4.35;3.00;;;16.00;99.90;;;;;;5072752;28;20663;-79
2021/08/28 05:40:57;;;;;;;3.75;2.80;;;15.90;99.90;;;;;;5072170;28;20202;-79
2021/08/28 05:43:24;;;;;;;4.35;2.78;;;15.90;99.90;;;;;;5072289;28;20206;-79
2021/08/28 05:45:55;;;;;;;2.88;2.67;;;15.90;99.90;;;;;;5072221;28;20267;-79
2021/08/28 05:48:22;;;;;;;3.72;2.53;;;15.90;99.90;;;;;;5072520;28;20211;-79
2021/08/28 05:50:49;;;;;;;4.45;3.15;;;15.90;99.90;;;;;;5072071;28;20202;-79
2021/08/28 05:53:16;;;;;;;3.78;2.65;;;15.90;99.90;;;;;;5072505;28;20256;-79
2021/08/28 05:55:43;;;;;;;5.13;3.28;;;15.80;99.90;;;;;;5071632;28;20226;-79
2021/08/28 05:58:10;;;;;;;3.58;2.50;;;15.80;99.90;;;;;;5072667;28;20202;-79
2021/08/28 06:00:37;;;;;;;4.10;2.60;;;15.70;99.90;;;;;;5072343;28;20264;-79
2021/08/28 06:03:05;;;;;;;5.45;3.38;;;15.70;99.90;;;;;;5072469;28;20209;-79
2021/08/28 06:05:32;;;;;;;4.65;3.00;;;15.70;99.90;;;;;;5072437;28;20210;-79
2021/08/28 06:07:59;;;;;;;2.55;2.35;;;15.70;99.90;;;;;;5071642;28;20229;-79
2021/08/28 06:10:26;;;;;;;3.65;2.58;;;15.80;99.90;;;;;;5072050;28;20283;-79
2021/08/28 06:12:53;;;;;;;4.13;2.65;;;15.80;99.90;;;;;;5071640;28;20263;-78
2021/08/28 06:15:20;;;;;;;3.35;2.33;;;15.80;99.90;;;;;;5072135;28;20229;-79
2021/08/28 06:17:47;;;;;;;3.03;2.50;;;15.90;99.90;;;;;;5071626;28;20252;-79
2021/08/28 06:20:16;;;;;;;5.72;2.67;;;16.00;99.90;;;;;;5071700;28;20202;-79
2021/08/28 06:22:43;;;;;;;4.25;3.65;;;16.00;99.90;;;;;;5071450;28;20735;-79
2021/08/28 06:25:10;;;;;;;4.18;3.22;;;16.00;99.90;;;;;;5071684;28;20228;-79
2021/08/28 06:27:37;;;;;;;2.55;2.17;;;16.10;99.90;;;;;;5072203;28;20206;-79
2021/08/28 06:30:05;;;;;;;3.58;2.63;;;16.10;99.90;;;;;;5072087;28;20202;-79
2021/08/28 06:32:32;;;;;;;7.97;2.58;;;16.10;99.90;;;;;;5072174;28;20210;-79
2021/08/28 06:34:59;;;;;;;9.00;3.40;;;16.00;99.90;;;;;;5071417;28;20234;-79
2021/08/28 06:37:28;;;;;;;4.53;2.65;;;16.10;99.90;;;;;;5071528;28;20205;-79
2021/08/28 06:39:55;;;;;;;3.03;2.72;;;16.20;99.90;;;;;;5071364;28;20206;-79
2021/08/28 06:42:22;;;;;;;4.88;2.88;;;16.30;99.90;;;;;;5071232;28;20251;-79
2021/08/28 06:44:49;;;;;;;3.70;2.65;;;16.30;99.90;;;;;;5071170;28;20287;-79
2021/08/28 06:47:15;;;;;;;4.68;2.60;;;16.40;99.90;;;;;;5070892;28;20210;-79
2021/08/28 06:49:43;;;;;;;3.80;2.78;;;16.40;99.90;;;;;;5070753;28;20739;-79
2021/08/28 06:52:10;;;;;;;5.47;2.70;;;16.50;99.90;;;;;;5070959;28;20210;-79
2021/08/28 06:54:38;;;;;;;3.03;2.70;;;16.50;99.90;;;;;;5071524;28;20271;-79
2021/08/28 06:57:05;;;;;;;4.22;2.55;;;16.60;99.90;;;;;;5071685;28;20209;-79
2021/08/28 06:59:32;;;;;;;3.70;2.22;;;16.70;99.90;;;;;;5071572;28;20206;-79
2021/08/28 07:01:59;;;;;;;2.38;2.17;;;16.70;99.90;;;;;;5070601;28;20267;-79
2021/08/28 07:04:26;;;;;;;4.72;2.40;;;16.80;99.90;;;;;;5070433;28;20596;-79
2021/08/28 07:06:53;;;;;;;5.50;2.45;;;16.90;99.90;;;;;;5071009;28;20212;-79
2021/08/28 07:09:20;;;;;;;2.60;2.30;;;16.90;99.90;;;;;;5071147;28;20217;-79
2021/08/28 07:11:50;;;;;;;3.03;2.72;;;16.90;99.90;;;;;;5070214;28;20206;-79
2021/08/28 07:14:17;;;;;;;4.55;2.72;;;17.10;99.90;;;;;;5070895;28;20206;-79
2021/08/28 07:16:44;;;;;;;2.33;1.77;;;17.20;99.90;;;;;;5069866;28;20226;-79
2021/08/28 07:19:11;;;;;;;5.10;2.22;;;17.40;99.90;;;;;;5070837;28;20206;-79
2021/08/28 07:21:38;;;;;;;3.65;2.30;;;17.50;99.90;;;;;;5070728;28;20205;-79
2021/08/28 07:24:05;;;;;;;3.88;2.42;;;17.50;99.90;;;;;;5071347;28;20198;-79
2021/08/28 07:26:32;;;;;;;4.70;2.65;;;17.60;99.90;;;;;;5070839;28;20580;-79
2021/08/28 07:29:01;;;;;;;2.65;2.17;;;17.70;99.90;;;;;;5070427;28;20259;-79
2021/08/28 07:31:28;;;;;;;5.65;2.38;;;17.60;99.90;;;;;;5069943;28;20214;-79
2021/08/28 07:33:55;;;;;;;2.53;2.33;;;17.50;99.90;;;;;;5070000;28;20287;-79
2021/08/28 07:36:22;;;;;;;4.53;2.65;;;17.60;99.90;;;;;;5070747;28;20287;-79
2021/08/28 07:38:49;;;;;;;4.15;3.22;;;17.70;99.90;;;;;;5069928;28;20228;-80
2021/08/28 07:41:16;;;;;;;2.28;1.92;;;17.80;99.90;;;;;;5070626;28;20677;-79
2021/08/28 07:43:43;;;;;;;3.50;2.03;;;17.90;99.90;;;;;;5069697;28;20217;-81
2021/08/28 07:46:11;;;;;;;3.97;2.72;;;17.90;99.90;;;;;;5070377;28;20263;-81
2021/08/28 07:48:38;;;;;;;2.95;2.38;;;17.90;99.90;;;;;;5070162;28;20205;-79
2021/08/28 07:51:05;;;;;;;3.78;3.03;;;18.00;99.90;;;;;;5070952;28;20206;-80
2021/08/28 07:53:32;;;;;;;3.30;2.45;;;18.20;99.90;;;;;;5070912;28;20210;-80
2021/08/28 07:55:59;;;;;;;2.70;2.20;;;18.30;99.90;;;;;;5069769;28;20230;-80
2021/08/28 07:58:26;;;;;;;5.68;2.40;;;18.40;99.90;;;;;;5070383;28;20260;-79
2021/08/28 08:00:53;;;;;;;2.72;2.28;;;18.40;99.90;;;;;;5069568;28;20297;-80
2021/08/28 08:03:22;;;;;;;3.42;2.30;;;18.50;99.90;;;;;;5070626;28;20199;-80
2021/08/28 08:05:49;;;;;;;2.33;2.10;;;18.60;99.90;;;;;;5069972;28;20206;-80
2021/08/28 08:08:16;;;;;;;3.65;2.42;;;18.60;99.90;;;;;;5070056;28;20252;-80
2021/08/28 08:10:43;;;;;;;6.03;2.13;;;18.70;99.90;;;;;;5069880;28;20214;-81
2021/08/28 08:13:10;;;;;;;2.90;2.10;;;18.70;99.90;;;;;;5069684;28;20206;-79
2021/08/28 08:15:37;;;;;;;1.98;1.70;;;18.70;99.90;;;;;;5070220;28;20280;-80
2021/08/28 08:18:04;;;;;;;4.22;2.53;;;18.90;99.90;;;;;;5070406;28;20206;-80
2021/08/28 08:20:33;;;;;;;3.28;2.17;;;19.00;99.90;;;;;;5070221;28;20251;-80
2021/08/28 08:23:01;;;;;;;2.60;2.38;;;19.20;99.90;;;;;;5069990;28;20279;-79
2021/08/28 08:25:28;;;;;;;2.50;2.30;;;19.30;99.90;;;;;;5069815;28;20316;-78
2021/08/28 08:27:55;;;;;;;2.30;1.60;;;19.40;99.90;;;;;;5069599;28;20206;-79
2021/08/28 08:30:22;;;;;;;3.25;2.20;;;19.50;99.90;;;;;;5070069;28;20259;-78
2021/08/28 08:32:49;;;;;;;2.53;2.33;;;19.50;99.90;;;;;;5069915;28;20202;-78
2021/08/28 08:35:16;;;;;;;5.75;2.53;;;19.70;99.90;;;;;;5069764;28;20233;-77
2021/08/28 08:37:45;;;;;;;2.53;2.33;;;19.80;99.90;;;;;;5069868;28;20206;-79
2021/08/28 08:40:13;;;;;;;3.53;2.08;;;19.90;99.90;;;;;;5069694;28;20273;-80
2021/08/28 08:42:42;;;;;;;3.00;2.13;;;19.90;99.90;;;;;;5069695;28;20207;-80
2021/08/28 08:45:10;;;;;;;2.33;1.83;;;20.00;99.90;;;;;;5073118;28;20692;-79
2021/08/28 08:47:37;;;;;;;3.80;2.30;;;20.30;99.90;;;;;;5059710;28;20206;-81
2021/08/28 08:50:06;;;;;;;2.97;2.15;;;20.30;99.90;;;;;;5074227;28;20210;-79
2021/08/28 08:52:34;;;;;;;5.25;2.17;;;20.50;99.90;;;;;;5073713;28;20256;-81
2021/08/28 08:55:03;;;;;;;3.97;1.98;;;20.60;99.90;;;;;;5072876;28;20669;-79
2021/08/28 08:57:30;;;;;;;3.20;2.53;;;21.10;99.90;;;;;;5072970;28;20207;-80
2021/08/28 08:59:58;;;;;;;2.50;2.00;;;21.00;99.90;;;;;;5073148;28;20206;-81
2021/08/28 09:02:25;;;;;;;3.22;2.47;;;21.20;99.90;;;;;;5073349;28;20214;-80
2021/08/28 09:04:52;;;;;;;5.45;2.92;;;21.20;99.90;;;;;;5072808;28;20666;-80
2021/08/28 09:07:20;;;;;;;2.83;2.28;;;21.20;99.90;;;;;;5073490;28;20214;-81
2021/08/28 09:09:47;;;;;;;3.83;2.35;;;21.60;99.90;;;;;;5072576;28;20209;-80
2021/08/28 09:12:15;;;;;;;4.18;2.00;;;22.00;99.90;;;;;;5073304;28;20206;-80
2021/08/28 09:14:42;;;;;;;3.60;2.13;;;24.20;99.90;;;;;;5072685;28;20259;-78
2021/08/28 09:17:17;;;;;;;3.03;1.63;;;25.30;99.90;;;;;;5073060;28;20234;-78
2021/08/28 09:19:45;;;;;;;3.13;2.15;;;24.20;99.90;;;;;;5072712;28;20263;-78
2021/08/28 09:22:23;;;;;;;6.38;2.13;;;23.70;99.90;;;;;;5073330;28;20210;-79
2021/08/28 09:24:51;;;;;;;2.03;1.80;;;23.20;99.90;;;;;;5072470;28;20297;-79
2021/08/28 09:27:40;;;;;;;1.60;1.40;;;23.10;99.90;;;;;;5072990;28;20209;-78
2021/08/28 09:30:19;;;;;;;3.50;1.90;;;23.50;99.90;;;;;;5073195;28;20260;-78
2021/08/28 09:32:51;;;;;;;2.72;1.80;;;24.30;99.90;;;;;;5072507;28;20217;-78
2021/08/28 09:35:19;;;;;;;4.28;2.42;;;27.60;99.90;;;;;;5072454;28;20210;-78
2021/08/28 09:37:53;;;;;;;5.25;2.60;;;28.70;99.90;;;;;;5072599;28;20210;-78
2021/08/28 09:40:23;;;;;;;1.90;1.73;;;31.50;99.90;;;;;;5072205;28;20693;-79
2021/08/28 09:42:56;;;;;;;4.00;1.95;;;32.20;99.90;;;;;;5072375;28;20210;-79
2021/08/28 09:45:25;;;;;;;3.95;1.70;;;32.30;99.90;;;;;;5072291;28;20213;-81
2021/08/28 09:47:53;;;;;;;5.05;1.95;;;32.20;99.70;;;;;;5072201;28;20213;-79
2021/08/28 09:50:32;;;;;;;2.78;2.25;;;31.20;98.70;;;;;;5072391;28;20241;-79
2021/08/28 09:53:04;;;;;;;2.03;1.65;;;34.10;97.70;;;;;;5080348;28;20676;-85
2021/08/28 09:55:32;;;;;;;2.33;1.77;;;32.90;97.80;;;;;;5076788;28;20254;-79
2021/08/28 09:58:01;;;;;;;1.98;1.65;;;33.80;97.60;;;;;;5072373;28;20206;-79
2021/08/28 10:00:30;;;;;;;2.25;1.60;;;32.80;97.10;;;;;;5072567;28;20205;-79
2021/08/28 10:03:04;;;;;;;2.25;1.83;;;32.20;97.60;;;;;;5058502;28;20350;-79
2021/08/28 10:05:34;;;;;;;1.58;1.33;;;32.00;98.10;;;;;;5072076;28;20223;-80
2021/08/28 10:08:03;;;;;;;1.77;1.33;;;32.50;97.30;;;;;;5071767;28;20209;-79
2021/08/28 10:10:32;;;;;;;3.20;2.17;;;33.20;97.10;;;;;;5072275;28;20209;-80
2021/08/28 10:13:02;;;;;;;3.47;2.17;;;33.60;96.60;;;;;;5071676;28;20299;-80
2021/08/28 10:15:31;;;;;;;2.33;1.73;;;32.10;97.10;;;;;;5071910;28;20734;-79
2021/08/28 10:17:59;;;;;;;4.13;1.70;;;32.80;97.00;;;;;;5071750;28;20267;-79
2021/08/28 10:20:28;;;;;;;3.10;1.90;;;34.30;96.10;;;;;;5058024;28;20251;-80
2021/08/28 10:22:56;;;;;;;2.42;1.77;;;35.50;95.50;;;;;;5071926;28;20208;-79
2021/08/28 10:25:25;;;;;;;2.28;1.92;;;35.40;95.10;;;;;;5071388;28;20202;-78
2021/08/28 10:27:54;;;;;;;1.83;1.67;;;36.20;94.50;;;;;;5071456;28;20209;-80
2021/08/28 10:30:25;;;;;;;2.47;2.00;;;36.20;94.40;;;;;;5071411;28;20670;-79
2021/08/28 10:32:54;;;;;;;3.17;1.38;;;35.20;94.00;;;;;;5071441;28;20202;-78
2021/08/28 10:35:22;;;;;;;3.45;1.73;;;29.70;95.90;;;;;;5071328;28;20708;-79
2021/08/28 10:37:50;;;;;;;4.07;1.75;;;27.10;97.80;;;;;;5071035;28;20720;-80
2021/08/28 10:40:21;;;;;;;1.83;1.65;;;25.50;98.90;;;;;;5071046;28;20213;-78
2021/08/28 10:42:50;;;;;;;4.10;1.95;;;24.80;99.80;;;;;;5071200;28;20210;-78
2021/08/28 10:45:24;;;;;;;3.67;1.60;;;24.60;99.70;;;;;;5071059;28;20283;-80
2021/08/28 10:47:57;;;;;;;2.63;1.77;;;24.20;99.80;;;;;;5071246;28;20267;-81
2021/08/28 10:50:25;;;;;;;4.22;1.92;;;23.90;99.90;;;;;;5071286;28;20209;-86
2021/08/28 10:52:52;;;;;;;4.63;2.13;;;23.90;99.90;;;;;;5070921;28;20214;-79
2021/08/28 10:55:19;;;;;;;4.40;1.88;;;24.10;99.90;;;;;;5071134;28;20593;-81
2021/08/28 10:57:46;;;;;;;3.97;2.58;;;24.00;99.90;;;;;;5070693;28;20233;-79
2021/08/28 11:00:15;;;;;;;2.17;1.85;;;24.30;99.90;;;;;;5071435;28;20206;-79
2021/08/28 11:02:56;;;;;;;3.08;1.45;;;24.30;99.90;;;;;;5070479;28;20267;-78
2021/08/28 11:05:24;;;;;;;3.53;1.85;;;24.40;99.90;;;;;;5058052;28;20210;-80
2021/08/28 11:07:52;;;;;;;1.65;1.30;;;24.40;99.90;;;;;;5068803;28;20267;-79
2021/08/28 11:10:22;;;;;;;2.17;1.63;;;24.50;99.50;;;;;;5071176;28;20226;-77
2021/08/28 11:13:00;;;;;;;3.78;2.10;;;24.50;99.10;;;;;;5070815;28;20210;-80
2021/08/28 11:15:51;;;;;;;2.60;1.67;;;24.20;99.30;;;;;;5058104;28;20741;-78
2021/08/28 11:18:47;;;;;;;2.03;1.83;;;24.40;99.80;;;;;;5070672;28;20755;-77
2021/08/28 11:21:15;;;;;;;1.80;1.70;;;24.20;99.70;;;;;;5064525;28;20328;-77
2021/08/28 11:23:52;;;;;;;4.40;1.83;;;24.30;99.50;;;;;;5063202;28;20203;-77
2021/08/28 11:26:36;;;;;;;2.42;1.88;;;24.20;99.30;;;;;;5058605;28;20207;-76
2021/08/28 11:29:18;;;;;;;5.05;2.58;;;23.60;99.40;;;;;;5057601;28;20203;-79
2021/08/28 11:31:47;;;;;;;2.75;2.13;;;23.90;99.90;;;;;;5070303;28;20293;-77
2021/08/28 11:34:28;;;;;;;5.25;2.30;;;24.20;99.90;;;;;;5069450;28;20289;-82
2021/08/28 11:37:49;;;;;;;2.33;1.48;;;24.30;99.00;;;;;;5069891;28;20225;-77
2021/08/28 11:40:28;;;;;;;2.92;1.58;;;24.30;98.90;;;;;;5060994;28;20245;-83
2021/08/28 11:42:55;;;;;;;3.33;1.90;;;24.20;99.80;;;;;;5070341;28;20288;-81
2021/08/28 11:45:32;;;;;;;3.13;2.33;;;24.20;99.90;;;;;;5069556;28;20730;-79
2021/08/28 11:47:59;;;;;;;3.05;2.20;;;23.60;99.90;;;;;;5070091;28;20220;-77
2021/08/28 11:50:32;;;;;;;2.63;2.30;;;23.90;99.90;;;;;;5070251;28;20261;-77
2021/08/28 11:52:59;;;;;;;1.83;1.67;;;24.30;99.90;;;;;;5069831;28;20272;-80
2021/08/28 11:55:26;;;;;;;3.13;1.65;;;24.00;99.90;;;;;;5069896;28;20637;-80
2021/08/28 11:58:05;;;;;;;2.95;1.95;;;24.10;99.80;;;;;;5070057;28;20654;-77
2021/08/28 12:00:33;;;;;;;5.55;1.58;;;24.60;99.90;;;;;;5069071;28;20201;-77
2021/08/28 12:03:01;;;;;;;3.30;2.92;;;24.60;99.70;;;;;;5070437;28;20202;-77
2021/08/28 12:05:31;;;;;;;2.72;2.03;;;24.80;99.90;;;;;;5064885;28;20259;-85
2021/08/28 12:07:58;;;;;;;7.47;4.28;;;24.80;99.90;;;;;;5069426;28;20288;-77
2021/08/28 12:10:26;;;;;;;3.13;1.98;;;25.00;99.90;;;;;;5068456;28;20276;-81
2021/08/28 12:13:01;;;;;;;2.85;1.35;;;24.80;99.80;;;;;;5068861;28;20214;-76
2021/08/28 12:15:30;;;;;;;7.82;4.70;;;24.40;99.90;;;;;;5061805;28;20728;-77
2021/08/28 12:17:58;;;;;;;2.85;2.40;;;24.50;99.90;;;;;;5067899;28;20230;-78
2021/08/28 12:20:27;;;;;;;2.58;1.80;;;24.60;99.90;;;;;;5068055;28;20631;-82
2021/08/28 12:22:57;;;;;;;1.70;1.60;;;24.80;99.80;;;;;;5069915;28;20206;-78
2021/08/28 12:25:24;;;;;;;1.85;1.65;;;25.00;99.90;;;;;;5066263;28;20198;-77
2021/08/28 12:27:52;;;;;;;2.15;1.73;;;25.10;99.90;;;;;;5067978;28;20573;-77
2021/08/28 12:30:21;;;;;;;1.88;1.55;;;25.00;99.70;;;;;;5057955;28;20727;-78
2021/08/28 12:32:48;;;;;;;3.10;1.58;;;25.20;99.90;;;;;;5062003;28;20644;-77
2021/08/28 12:35:15;;;;;;;4.55;1.70;;;24.70;98.90;;;;;;5074783;28;20203;-77
2021/08/28 12:37:42;;;;;;;1.77;1.60;;;24.90;99.30;;;;;;5068509;28;20248;-77
2021/08/28 12:40:14;;;;;;;3.03;2.38;;;24.90;98.80;;;;;;5071319;28;20206;-77
2021/08/28 12:42:42;;;;;;;2.83;1.60;;;24.90;97.80;;;;;;5067248;28;20677;-80
2021/08/28 12:45:12;;;;;;;2.85;1.60;;;24.90;97.80;;;;;;5073015;28;20214;-77
2021/08/28 12:47:40;;;;;;;2.50;1.70;;;25.00;98.50;;;;;;5067592;28;20214;-78
2021/08/28 12:50:10;;;;;;;1.50;1.40;;;25.20;98.60;;;;;;5073214;28;20739;-77
2021/08/28 12:52:38;;;;;;;2.17;1.33;;;24.70;98.50;;;;;;5073457;28;20289;-77
2021/08/28 12:55:07;;;;;;;1.73;1.20;;;25.00;98.90;;;;;;5062270;28;20284;-79
2021/08/28 12:57:35;;;;;;;2.58;1.77;;;25.60;99.20;;;;;;5063343;28;20676;-81